Kuujjuarapik Airport
CYGW : now visible

Airfield :











YOU CAN JOIN US ON...

 
LOGIN :

Register | Disclaimer

   EN    FR    IT 

 









Legend :    VFR   Marginal VFR   IFR   Intensive IFR   Very Intensive IFR
Visi :
Ceiling :
>= 8 km
>= 3000ft
5 to 8 km
1000 to 3000 ft
1500m to 5 km
500 to 1000 ft
800 to 1500m
200 to 500 ft
< 800m
< 200 ft
Symbols :   Thunderstorms  Fog  Heavy snow  Heavy precipitations  Wind > 20 kt






- Airport Elevation : 34 ft
- IATA code : YGW


CYGW - Kuujjuarapik

CURRENT METAR :
  • 080500Z AUTO 17005KT 9SM CLR 14/12 A2968 RMK SLP052 DENSITY ALT 100FT

EXPIRED METARs :
  • 080400Z AUTO 18004KT 9SM CLR 14/13 A2968 RMK SLP053 DENSITY ALT 100FT
  • 080300Z AUTO 16003KT 9SM CLR 13/12 A2969 RMK SLP057

TAF AMD TAF CYGW
Valid from the 08 at 02:00 until the 08 at 12:00 UTC


080222Z 0802/0812 24008KT P6SM FEW003
TEMPO 0802/0807 3SM BR
PROB30 0802/0807 1SM BR BKN003
FM080700 22012KT P6SM FEW002 BKN100
FM081000 22012KT P6SM BKN020 BKN060 RMK FCST BASED ON AUTO OBS. NXT FCST BY 080600Z
CZUL FIR / North America



MET'MAP, your aeronautical weather chart ! - Copyright ORBIFLY December 2007 - Disclaimer

ORBIFLY MET'MAP TEAM :

Programming & Development : Alexandra Zaïnal
Concept & original design : Baudouin d'Aumeries
Assistance for programming : Marc-Olivier Méhu
Technical & hardware support : Manuel Goepfert

Contact : metmap@orbifly.com




SOURCES & CREDITS :

   NOAA       Earth
Advisory